createdAt,value
2019-02-23T00:00:47.133Z,91.00
2019-02-23T00:03:15.183Z,91.10
2019-02-23T00:05:42.423Z,91.20
2019-02-23T00:08:08.571Z,91.10
2019-02-23T00:10:34.944Z,91.20
2019-02-23T00:13:01.164Z,91.20
2019-02-23T00:15:27.303Z,91.70
2019-02-23T00:17:53.444Z,91.60
2019-02-23T00:20:19.698Z,92.00
2019-02-23T00:22:45.852Z,91.60
2019-02-23T00:25:12.006Z,91.80
2019-02-23T00:27:38.153Z,91.60
2019-02-23T00:30:06.044Z,91.50
2019-02-23T00:32:32.205Z,91.60
2019-02-23T00:34:59.344Z,92.00
2019-02-23T00:37:25.503Z,91.50
2019-02-23T00:39:51.671Z,91.50
2019-02-23T00:42:18.126Z,91.20
2019-02-23T00:44:44.275Z,91.10
2019-02-23T00:47:10.439Z,91.60
2019-02-23T00:49:36.814Z,91.60
2019-02-23T00:52:03.091Z,91.50
2019-02-23T00:54:29.300Z,91.80
2019-02-23T00:56:55.489Z,91.90
2019-02-23T00:59:21.645Z,91.70
2019-02-23T01:01:47.791Z,91.80
2019-02-23T01:04:13.947Z,91.70
2019-02-23T01:06:40.104Z,91.80
2019-02-23T01:09:06.256Z,92.00
2019-02-23T01:11:34.534Z,91.90
2019-02-23T01:14:00.687Z,91.80
2019-02-23T01:16:26.835Z,92.20
2019-02-23T01:18:53.002Z,92.10
2019-02-23T01:21:19.416Z,92.10
2019-02-23T01:23:46.248Z,92.00
2019-02-23T01:26:12.401Z,91.70
2019-02-23T01:28:38.556Z,91.80
2019-02-23T01:31:04.803Z,92.20
2019-02-23T01:33:30.961Z,91.90
2019-02-23T01:35:57.109Z,91.40
2019-02-23T01:38:23.274Z,92.10
2019-02-23T01:40:49.407Z,91.70
2019-02-23T01:43:15.576Z,91.50
2019-02-23T01:45:42.659Z,91.60
2019-02-23T01:48:09.214Z,91.90
2019-02-23T01:50:35.590Z,92.20
2019-02-23T01:53:01.755Z,92.00
2019-02-23T01:55:27.898Z,92.10
2019-02-23T01:57:54.058Z,92.10
2019-02-23T02:00:21.514Z,92.50
2019-02-23T02:02:47.664Z,91.80
2019-02-23T02:05:13.812Z,91.90
2019-02-23T02:07:40.081Z,91.70
2019-02-23T02:10:07.968Z,91.70
2019-02-23T02:12:34.216Z,91.60
2019-02-23T02:15:00.481Z,92.00
2019-02-23T02:17:26.744Z,92.30
2019-02-23T02:19:52.915Z,92.60
2019-02-23T02:22:19.411Z,92.20
2019-02-23T02:24:45.585Z,92.20
2019-02-23T02:27:11.729Z,91.90
2019-02-23T02:29:37.878Z,92.80
2019-02-23T02:32:05.117Z,92.40
2019-02-23T02:34:31.277Z,92.30
2019-02-23T02:36:57.482Z,92.20
2019-02-23T02:39:23.739Z,92.20
2019-02-23T02:41:49.884Z,92.30
2019-02-23T02:44:16.037Z,92.50
2019-02-23T02:46:42.188Z,92.60
2019-02-23T02:49:08.351Z,92.60
2019-02-23T02:51:34.513Z,92.50
2019-02-23T02:54:00.645Z,92.50
2019-02-23T02:56:28.042Z,92.50
2019-02-23T02:58:54.197Z,92.50
2019-02-23T03:01:20.615Z,92.50
2019-02-23T03:03:46.764Z,92.20
2019-02-23T03:06:12.953Z,92.30
2019-02-23T03:08:39.085Z,92.20
2019-02-23T03:11:05.244Z,93.10
2019-02-23T03:13:31.401Z,92.90
2019-02-23T03:15:57.558Z,92.80
2019-02-23T03:18:23.704Z,93.30
2019-02-23T03:20:49.852Z,93.30
2019-02-23T03:23:16.231Z,93.10
2019-02-23T03:25:42.603Z,93.30
2019-02-23T03:28:08.762Z,93.40
2019-02-23T03:30:34.931Z,93.30
2019-02-23T03:33:01.148Z,93.40
2019-02-23T03:35:27.536Z,93.20
2019-02-23T03:37:53.688Z,93.50
2019-02-23T03:40:19.840Z,93.50
2019-02-23T03:42:45.997Z,93.40
2019-02-23T03:45:12.430Z,93.60
2019-02-23T03:47:38.588Z,92.40
2019-02-23T03:50:06.222Z,92.90
2019-02-23T03:52:32.371Z,93.50
2019-02-23T03:54:58.528Z,92.80
2019-02-23T03:57:24.688Z,92.60
2019-02-23T03:59:50.829Z,92.30
2019-02-23T04:02:16.980Z,93.20
2019-02-23T04:04:43.121Z,93.80
2019-02-23T04:07:09.290Z,93.80
2019-02-23T04:09:35.439Z,92.90
2019-02-23T04:12:01.589Z,93.80
2019-02-23T04:14:27.750Z,93.80
2019-02-23T04:16:53.896Z,94.10
2019-02-23T04:19:20.038Z,93.70
2019-02-23T04:21:46.481Z,93.30
2019-02-23T04:24:12.626Z,93.10
2019-02-23T04:26:38.773Z,93.20
2019-02-23T04:29:04.950Z,93.50
2019-02-23T04:31:31.093Z,93.40
2019-02-23T04:33:57.256Z,93.00
2019-02-23T04:36:23.415Z,93.20
2019-02-23T04:38:49.585Z,93.60
2019-02-23T04:41:15.724Z,93.60
2019-02-23T04:43:44.177Z,93.10
2019-02-23T04:46:10.044Z,93.00
2019-02-23T04:48:36.270Z,93.40
2019-02-23T04:51:13.873Z,93.20
2019-02-23T04:53:30.868Z,92.90
2019-02-23T04:55:57.017Z,92.50
2019-02-23T04:58:23.196Z,92.40
2019-02-23T05:00:49.342Z,92.30
2019-02-23T05:03:15.503Z,92.20
2019-02-23T05:05:41.640Z,92.50
2019-02-23T05:08:07.797Z,92.40
2019-02-23T05:10:33.948Z,92.20
2019-02-23T05:13:00.231Z,92.10
2019-02-23T05:15:26.766Z,92.10
2019-02-23T05:17:55.464Z,92.00
2019-02-23T05:20:20.956Z,92.10
2019-02-23T05:22:47.114Z,91.90
2019-02-23T05:25:13.255Z,91.80
2019-02-23T05:27:39.396Z,91.80
2019-02-23T05:30:10.722Z,91.70
2019-02-23T05:32:36.870Z,91.80
2019-02-23T05:35:05.220Z,92.00
2019-02-23T05:37:31.372Z,92.10
2019-02-23T05:39:57.539Z,92.00
2019-02-23T05:42:23.681Z,92.00
2019-02-23T05:44:49.833Z,91.90
2019-02-23T05:47:15.971Z,92.00
2019-02-23T05:49:42.133Z,92.00
2019-02-23T05:52:08.271Z,92.00
2019-02-23T05:54:34.429Z,92.10
2019-02-23T05:57:00.844Z,92.20
2019-02-23T05:59:27.005Z,92.10
2019-02-23T06:01:53.148Z,92.20
2019-02-23T06:04:19.313Z,92.10
2019-02-23T06:06:45.469Z,92.00
2019-02-23T06:09:11.614Z,92.20
2019-02-23T06:11:37.771Z,92.30
2019-02-23T06:14:04.100Z,92.30
2019-02-23T06:16:30.259Z,92.40
2019-02-23T06:18:56.400Z,92.30
2019-02-23T06:21:22.555Z,92.50
2019-02-23T06:23:48.699Z,92.50
2019-02-23T06:26:14.854Z,92.60
2019-02-23T06:28:41.018Z,92.60
2019-02-23T06:31:07.195Z,92.80
2019-02-23T06:33:33.324Z,92.70
2019-02-23T06:35:59.479Z,92.60
2019-02-23T06:38:25.620Z,92.60
2019-02-23T06:40:51.784Z,92.70
2019-02-23T06:43:17.929Z,92.80
2019-02-23T06:45:44.091Z,93.00
2019-02-23T06:48:10.232Z,93.00
2019-02-23T06:50:36.397Z,93.00
2019-02-23T06:53:02.563Z,92.80
2019-02-23T06:55:28.723Z,93.00
2019-02-23T06:57:54.888Z,93.00
2019-02-23T07:00:21.058Z,93.00
2019-02-23T07:02:47.200Z,92.80
2019-02-23T07:05:13.364Z,92.60
2019-02-23T07:07:39.541Z,92.50
2019-02-23T07:10:09.287Z,92.40
2019-02-23T07:12:35.439Z,92.30
2019-02-23T07:15:01.799Z,92.20
2019-02-23T07:17:27.935Z,92.10
2019-02-23T07:19:54.084Z,92.40
2019-02-23T07:22:20.235Z,92.20
2019-02-23T07:24:46.393Z,92.10
2019-02-23T07:27:12.537Z,91.80
2019-02-23T07:29:38.691Z,91.50
2019-02-23T07:32:05.091Z,91.20
2019-02-23T07:34:31.581Z,91.00
2019-02-23T07:36:57.719Z,90.60
2019-02-23T07:39:24.175Z,90.10
2019-02-23T07:41:50.334Z,89.20
2019-02-23T07:44:16.471Z,88.90
2019-02-23T07:46:42.637Z,88.20
2019-02-23T07:49:08.774Z,87.20
2019-02-23T07:51:34.953Z,86.90
2019-02-23T07:54:01.098Z,86.60
2019-02-23T07:56:27.260Z,85.30
2019-02-23T07:58:53.408Z,85.20
2019-02-23T08:01:20.565Z,85.50
2019-02-23T08:03:46.719Z,84.50
2019-02-23T08:06:13.294Z,83.20
2019-02-23T08:08:39.454Z,82.20
2019-02-23T08:11:05.879Z,82.10
2019-02-23T08:13:32.051Z,81.40
2019-02-23T08:15:58.225Z,80.10
2019-02-23T08:18:24.578Z,79.20
2019-02-23T08:20:51.114Z,77.80
2019-02-23T08:23:17.600Z,77.30
2019-02-23T08:25:43.971Z,76.70
2019-02-23T08:28:10.127Z,75.90
2019-02-23T08:30:36.491Z,76.00
2019-02-23T08:33:02.645Z,75.60
2019-02-23T08:35:29.027Z,76.00
2019-02-23T08:37:55.432Z,75.30
2019-02-23T08:40:21.571Z,74.20
2019-02-23T08:42:47.967Z,73.70
2019-02-23T08:45:14.214Z,72.70
2019-02-23T08:47:40.387Z,72.60
2019-02-23T08:50:09.915Z,70.90
2019-02-23T08:52:36.074Z,70.50
2019-02-23T08:55:02.620Z,69.80
2019-02-23T08:57:28.847Z,69.60
2019-02-23T08:59:54.997Z,68.40
2019-02-23T09:02:21.149Z,69.30
2019-02-23T09:04:48.399Z,69.00
2019-02-23T09:07:14.555Z,67.30
2019-02-23T09:09:40.939Z,66.10
2019-02-23T09:12:07.089Z,66.10
2019-02-23T09:14:34.246Z,66.90
2019-02-23T09:17:00.399Z,66.40
2019-02-23T09:19:26.807Z,66.50
2019-02-23T09:21:52.939Z,65.30
2019-02-23T09:24:19.093Z,64.40
2019-02-23T09:26:45.256Z,64.70
2019-02-23T09:29:11.403Z,64.50
2019-02-23T09:31:37.556Z,63.20
2019-02-23T09:34:03.708Z,62.40
2019-02-23T09:36:31.189Z,62.20
2019-02-23T09:38:57.344Z,62.40
2019-02-23T09:41:23.540Z,61.80
2019-02-23T09:43:49.803Z,62.50
2019-02-23T09:46:16.003Z,62.10
2019-02-23T09:48:42.396Z,61.40
2019-02-23T09:51:08.871Z,61.40
2019-02-23T09:53:35.103Z,60.80
2019-02-23T09:56:01.250Z,60.70
2019-02-23T09:58:27.392Z,60.40
2019-02-23T10:00:53.554Z,60.10
2019-02-23T10:03:19.941Z,59.70
2019-02-23T10:05:46.113Z,59.60
2019-02-23T10:08:12.277Z,59.10
2019-02-23T10:10:38.432Z,59.60
2019-02-23T10:13:04.619Z,59.10
2019-02-23T10:15:31.019Z,59.10
2019-02-23T10:17:57.428Z,59.10
2019-02-23T10:20:23.615Z,58.50
2019-02-23T10:22:49.839Z,58.20
2019-02-23T10:25:16.005Z,57.50
2019-02-23T10:27:42.266Z,58.20
2019-02-23T10:30:10.745Z,57.70
2019-02-23T10:32:36.891Z,57.70
2019-02-23T10:35:05.508Z,58.50
2019-02-23T10:37:31.651Z,58.40
2019-02-23T10:39:57.825Z,58.40
2019-02-23T10:42:23.969Z,57.90
2019-02-23T10:44:50.172Z,57.70
2019-02-23T10:47:16.708Z,57.90
2019-02-23T10:49:43.089Z,58.60
2019-02-23T10:52:09.247Z,58.40
2019-02-23T10:54:35.649Z,58.60
2019-02-23T10:57:01.808Z,58.80
2019-02-23T10:59:28.338Z,59.20
2019-02-23T11:01:54.724Z,58.90
2019-02-23T11:04:21.122Z,57.70
2019-02-23T11:06:47.540Z,57.00
2019-02-23T11:09:15.751Z,56.50
2019-02-23T11:11:42.115Z,56.10
2019-02-23T11:14:08.262Z,55.40
2019-02-23T11:16:34.445Z,55.60
2019-02-23T11:19:01.592Z,55.30
2019-02-23T11:21:27.863Z,56.20
2019-02-23T11:23:54.258Z,55.60
2019-02-23T11:26:20.404Z,55.40
2019-02-23T11:28:46.560Z,56.20
2019-02-23T11:31:12.719Z,56.40
2019-02-23T11:33:38.881Z,55.10
2019-02-23T11:36:05.029Z,54.20
2019-02-23T11:38:32.011Z,53.90
2019-02-23T11:40:58.182Z,53.00
2019-02-23T11:43:24.342Z,53.50
2019-02-23T11:45:50.502Z,53.60
2019-02-23T11:48:16.692Z,53.40
2019-02-23T11:50:43.079Z,53.50
2019-02-23T11:53:09.243Z,54.10
2019-02-23T11:55:35.388Z,54.00
2019-02-23T11:58:01.543Z,52.70
2019-02-23T12:00:27.935Z,52.20
2019-02-23T12:02:54.102Z,50.80
2019-02-23T12:05:20.284Z,50.60
2019-02-23T12:07:46.446Z,51.70
2019-02-23T12:10:14.826Z,51.00
2019-02-23T12:12:41.080Z,50.00
2019-02-23T12:15:08.536Z,50.60
2019-02-23T12:17:34.711Z,49.90
2019-02-23T12:20:02.832Z,50.00
2019-02-23T12:22:28.999Z,51.50
2019-02-23T12:24:55.156Z,52.30
2019-02-23T12:27:22.311Z,51.50
2019-02-23T12:29:48.704Z,51.70
2019-02-23T12:32:14.876Z,52.40
2019-02-23T12:34:41.026Z,51.80
2019-02-23T12:37:07.467Z,50.80
2019-02-23T12:39:33.603Z,49.30
2019-02-23T12:41:59.777Z,48.70
2019-02-23T12:44:26.168Z,48.80
2019-02-23T12:46:52.343Z,47.90
2019-02-23T12:49:18.500Z,48.70
2019-02-23T12:51:44.653Z,48.80
2019-02-23T12:54:16.862Z,47.90
2019-02-23T12:56:38.871Z,48.00
2019-02-23T12:59:05.036Z,47.50
2019-02-23T13:01:31.203Z,46.30
2019-02-23T13:03:57.390Z,45.70
2019-02-23T13:06:23.554Z,45.50
2019-02-23T13:09:15.250Z,45.80
2019-02-23T13:11:47.965Z,45.20
2019-02-23T13:14:37.409Z,45.60
2019-02-23T13:17:19.244Z,45.50
2019-02-23T13:20:20.820Z,46.50
2019-02-23T13:22:59.051Z,46.20
2019-02-23T13:25:52.708Z,44.70
2019-02-23T13:28:28.408Z,44.40
2019-02-23T13:31:23.903Z,43.30
2019-02-23T13:34:02.229Z,43.40
2019-02-23T13:36:52.808Z,43.40
2019-02-23T13:39:25.563Z,42.80
2019-02-23T13:42:05.696Z,43.60
2019-02-23T13:44:52.283Z,43.60
2019-02-23T13:47:26.240Z,44.40
2019-02-23T13:50:14.154Z,42.80
2019-02-23T13:53:03.699Z,43.20
2019-02-23T13:55:39.321Z,43.70
2019-02-23T13:58:12.365Z,44.50
2019-02-23T14:00:42.327Z,44.40
2019-02-23T14:03:30.197Z,42.70
2019-02-23T14:06:00.372Z,41.90
2019-02-23T14:08:43.205Z,41.10
2019-02-23T14:11:35.753Z,41.80
2019-02-23T14:14:08.592Z,41.80
2019-02-23T14:16:56.488Z,41.10
2019-02-23T14:19:32.450Z,41.40
2019-02-23T14:22:05.118Z,41.80
2019-02-23T14:24:51.464Z,42.00
2019-02-23T14:27:21.409Z,42.20
2019-02-23T14:30:11.024Z,42.00
2019-02-23T14:33:09.110Z,40.10
2019-02-23T14:35:57.376Z,40.30
2019-02-23T14:38:33.317Z,39.70
2019-02-23T14:41:19.975Z,39.80
2019-02-23T14:44:13.447Z,39.80
2019-02-23T14:46:52.436Z,40.80
2019-02-23T14:49:25.625Z,38.50
2019-02-23T14:52:28.694Z,38.10
2019-02-23T14:55:22.160Z,38.50
2019-02-23T14:58:13.148Z,37.50
2019-02-23T15:00:48.668Z,38.00
2019-02-23T15:03:39.506Z,37.20
2019-02-23T15:06:27.475Z,38.00
2019-02-23T15:09:26.326Z,37.60
2019-02-23T15:12:02.077Z,37.40
2019-02-23T15:14:40.810Z,36.40
2019-02-23T15:17:36.398Z,36.40
2019-02-23T15:20:24.196Z,36.40
2019-02-23T15:22:54.420Z,36.60
2019-02-23T15:25:35.779Z,37.30
2019-02-23T15:28:37.004Z,36.80
2019-02-23T15:30:55.563Z,36.60
2019-02-23T15:33:47.852Z,37.00
2019-02-23T15:36:24.042Z,37.50
2019-02-23T15:38:56.716Z,37.10
2019-02-23T15:41:26.708Z,36.10
2019-02-23T15:44:11.720Z,36.00
2019-02-23T15:46:47.648Z,36.30
2019-02-23T15:49:28.648Z,36.20
2019-02-23T15:51:55.020Z,36.50
2019-02-23T15:54:21.145Z,36.60
2019-02-23T15:56:47.398Z,36.20
2019-02-23T15:59:13.557Z,36.50
2019-02-23T16:01:39.717Z,36.50
2019-02-23T16:04:05.909Z,36.50
2019-02-23T16:06:32.115Z,37.40
2019-02-23T16:08:58.265Z,37.80
2019-02-23T16:11:24.653Z,37.90
2019-02-23T16:13:50.827Z,37.60
2019-02-23T16:16:16.998Z,37.90
2019-02-23T16:18:43.580Z,37.80
2019-02-23T16:21:10.036Z,37.30
2019-02-23T16:23:36.399Z,37.20
2019-02-23T16:26:02.780Z,37.70
2019-02-23T16:28:29.018Z,37.90
2019-02-23T16:30:55.573Z,38.10
2019-02-23T16:33:21.780Z,37.90
2019-02-23T16:35:48.198Z,38.20
2019-02-23T16:38:14.366Z,38.50
2019-02-23T16:40:40.536Z,38.50
2019-02-23T16:43:06.711Z,38.60
2019-02-23T16:45:39.010Z,38.80
2019-02-23T16:48:05.407Z,38.70
2019-02-23T16:50:31.575Z,38.90
2019-02-23T16:52:57.820Z,39.40
2019-02-23T16:55:23.998Z,39.20
2019-02-23T16:57:50.392Z,39.10
2019-02-23T17:00:16.550Z,39.40
2019-02-23T17:02:42.700Z,39.30
2019-02-23T17:05:08.846Z,38.90
2019-02-23T17:07:35.231Z,38.70
2019-02-23T17:10:01.392Z,38.90
2019-02-23T17:12:28.846Z,38.00
2019-02-23T17:14:55.004Z,37.80
2019-02-23T17:17:21.446Z,37.30
2019-02-23T17:19:48.588Z,37.30
2019-02-23T17:22:14.753Z,37.60
2019-02-23T17:24:40.998Z,37.70
2019-02-23T17:27:07.522Z,37.60
2019-02-23T17:29:33.901Z,38.00
2019-02-23T17:32:00.084Z,38.50
2019-02-23T17:34:26.454Z,38.50
2019-02-23T17:36:53.063Z,38.40
2019-02-23T17:39:19.219Z,38.30
2019-02-23T17:41:45.415Z,38.10
2019-02-23T17:44:11.829Z,38.30
2019-02-23T17:46:37.972Z,38.40
2019-02-23T17:49:04.128Z,38.40
2019-02-23T17:51:30.283Z,38.10
2019-02-23T17:53:56.555Z,37.90
2019-02-23T17:56:22.733Z,37.80
2019-02-23T17:58:49.127Z,37.70
2019-02-23T18:01:15.273Z,37.90
2019-02-23T18:03:41.666Z,38.30
2019-02-23T18:06:07.953Z,38.10
2019-02-23T18:08:34.192Z,38.20
2019-02-23T18:11:00.591Z,38.40
2019-02-23T18:13:27.202Z,38.20
2019-02-23T18:15:53.345Z,38.40
2019-02-23T18:18:19.667Z,38.80
2019-02-23T18:20:45.830Z,39.20
2019-02-23T18:23:12.115Z,39.60
2019-02-23T18:25:38.381Z,39.80
2019-02-23T18:28:04.569Z,40.00
2019-02-23T18:30:30.707Z,40.10
2019-02-23T18:32:56.987Z,40.70
2019-02-23T18:35:23.423Z,40.60
2019-02-23T18:37:49.608Z,40.90
2019-02-23T18:40:16.126Z,41.10
2019-02-23T18:42:42.681Z,41.50
2019-02-23T18:45:08.887Z,41.40
2019-02-23T18:47:35.507Z,41.70
2019-02-23T18:50:02.074Z,41.60
2019-02-23T18:52:29.535Z,41.90
2019-02-23T18:54:55.787Z,41.90
2019-02-23T18:57:22.000Z,42.20
2019-02-23T18:59:48.159Z,42.20
2019-02-23T19:02:14.575Z,42.20
2019-02-23T19:04:40.722Z,42.60
2019-02-23T19:07:06.884Z,42.60
2019-02-23T19:09:34.080Z,42.70
2019-02-23T19:12:00.243Z,42.70
2019-02-23T19:14:26.646Z,42.80
2019-02-23T19:16:52.992Z,43.10
2019-02-23T19:19:19.227Z,43.30
2019-02-23T19:21:45.396Z,43.40
2019-02-23T19:24:11.650Z,43.50
2019-02-23T19:26:38.439Z,43.40
2019-02-23T19:29:05.047Z,43.40
2019-02-23T19:31:31.207Z,43.50
2019-02-23T19:33:57.370Z,43.50
2019-02-23T19:36:23.627Z,43.50
2019-02-23T19:38:49.853Z,43.60
2019-02-23T19:41:16.109Z,43.80
2019-02-23T19:43:43.376Z,43.80
2019-02-23T19:46:09.531Z,44.00
2019-02-23T19:48:36.027Z,44.90
2019-02-23T19:51:05.146Z,44.50
2019-02-23T19:53:31.449Z,44.70
2019-02-23T19:55:57.854Z,44.90
2019-02-23T19:58:24.050Z,45.20
2019-02-23T20:00:50.589Z,45.50
2019-02-23T20:03:17.903Z,45.70
2019-02-23T20:05:44.301Z,46.00
2019-02-23T20:08:10.488Z,46.10
2019-02-23T20:10:37.083Z,46.50
2019-02-23T20:13:03.715Z,46.80
2019-02-23T20:15:30.193Z,47.00
2019-02-23T20:17:56.575Z,47.10
2019-02-23T20:20:22.757Z,47.30
2019-02-23T20:22:48.957Z,47.40
2019-02-23T20:25:15.596Z,47.50
2019-02-23T20:27:41.795Z,47.60
2019-02-23T20:30:09.555Z,47.40
2019-02-23T20:32:36.324Z,47.20
2019-02-23T20:35:02.903Z,47.20
2019-02-23T20:37:29.211Z,47.30
2019-02-23T20:39:55.625Z,47.40
2019-02-23T20:42:21.879Z,47.40
2019-02-23T20:44:48.050Z,47.40
2019-02-23T20:47:14.284Z,47.30
2019-02-23T20:49:40.624Z,47.20
2019-02-23T20:52:07.590Z,47.30
2019-02-23T20:54:33.970Z,47.40
2019-02-23T20:57:05.284Z,47.50
2019-02-23T20:59:29.196Z,47.40
2019-02-23T21:01:55.370Z,47.00
2019-02-23T21:04:21.524Z,46.90
2019-02-23T21:06:47.891Z,46.80
2019-02-23T21:09:14.148Z,46.70
2019-02-23T21:11:40.338Z,46.70
2019-02-23T21:14:06.470Z,46.70
2019-02-23T21:16:32.648Z,46.60
2019-02-23T21:18:58.791Z,46.60
2019-02-23T21:21:24.980Z,46.90
2019-02-23T21:23:51.139Z,47.30
2019-02-23T21:26:17.397Z,47.60
2019-02-23T21:28:43.531Z,47.80
2019-02-23T21:31:09.683Z,47.90
2019-02-23T21:33:35.830Z,48.00
2019-02-23T21:36:02.127Z,47.90
2019-02-23T21:38:28.536Z,47.70
2019-02-23T21:40:54.678Z,47.40
2019-02-23T21:43:20.834Z,47.30
2019-02-23T21:45:46.979Z,47.00
2019-02-23T21:48:13.137Z,47.10
2019-02-23T21:50:39.296Z,46.80
2019-02-23T21:53:05.445Z,46.80
2019-02-23T21:55:31.610Z,46.90
2019-02-23T21:57:57.854Z,47.10
2019-02-23T22:00:24.026Z,47.20
2019-02-23T22:02:50.707Z,47.10
2019-02-23T22:05:16.980Z,47.30
2019-02-23T22:07:43.263Z,47.50
2019-02-23T22:10:09.515Z,47.60
2019-02-23T22:12:35.675Z,47.70
2019-02-23T22:15:03.241Z,47.80
2019-02-23T22:17:29.578Z,47.70
2019-02-23T22:20:08.883Z,47.90
2019-02-23T22:22:36.047Z,47.90
2019-02-23T22:25:02.518Z,47.70
2019-02-23T22:27:31.414Z,47.80
2019-02-23T22:29:57.096Z,48.20
2019-02-23T22:32:23.444Z,48.10
2019-02-23T22:34:49.607Z,48.20
2019-02-23T22:37:15.757Z,48.20
2019-02-23T22:39:41.916Z,48.20
2019-02-23T22:42:08.045Z,48.30
2019-02-23T22:44:34.204Z,48.40
2019-02-23T22:47:00.338Z,48.50
2019-02-23T22:49:26.497Z,48.60
2019-02-23T22:51:52.630Z,48.70
2019-02-23T22:54:18.782Z,49.00
2019-02-23T22:56:44.931Z,49.10
2019-02-23T22:59:11.075Z,49.10
2019-02-23T23:01:37.652Z,49.30
2019-02-23T23:04:05.810Z,49.40
2019-02-23T23:06:31.951Z,49.40
2019-02-23T23:08:58.114Z,49.50
2019-02-23T23:11:24.402Z,49.70
2019-02-23T23:13:50.580Z,49.50
2019-02-23T23:16:18.635Z,49.40
2019-02-23T23:18:44.811Z,49.50
2019-02-23T23:21:10.955Z,49.60
2019-02-23T23:23:37.107Z,49.70
2019-02-23T23:26:03.583Z,49.50
2019-02-23T23:28:29.955Z,49.40
2019-02-23T23:30:56.109Z,49.40
2019-02-23T23:33:22.242Z,49.40
2019-02-23T23:35:48.615Z,49.40
2019-02-23T23:38:14.990Z,49.40
2019-02-23T23:40:41.134Z,49.40
2019-02-23T23:43:07.513Z,49.40
2019-02-23T23:45:34.158Z,49.60
2019-02-23T23:48:00.302Z,49.80
2019-02-23T23:50:26.928Z,50.00
2019-02-23T23:52:53.099Z,50.10
2019-02-23T23:55:20.319Z,50.20
2019-02-23T23:57:46.684Z,50.10
